createdAt,value
2018-10-21T00:00:12.997Z,25.83
2018-10-21T00:02:41.481Z,26.83
2018-10-21T00:05:11.374Z,28.77
2018-10-21T00:07:39.850Z,27.20
2018-10-21T00:10:10.015Z,29.63
2018-10-21T00:12:38.709Z,32.30
2018-10-21T00:15:08.056Z,31.17
2018-10-21T00:17:36.988Z,28.50
2018-10-21T00:20:12.487Z,35.00
2018-10-21T00:22:41.018Z,27.85
2018-10-21T00:25:09.362Z,27.70
2018-10-21T00:27:37.921Z,28.50
2018-10-21T00:30:06.421Z,30.93
2018-10-21T00:32:54.625Z,30.43
2018-10-21T00:35:22.906Z,33.30
2018-10-21T00:37:51.290Z,31.73
2018-10-21T00:40:19.580Z,29.05
2018-10-21T00:42:54.778Z,35.00
2018-10-21T00:45:23.357Z,34.27
2018-10-21T00:47:51.775Z,28.92
2018-10-21T00:50:20.067Z,34.73
2018-10-21T00:52:48.412Z,31.43
2018-10-21T00:55:16.702Z,31.73
2018-10-21T00:57:45.024Z,33.35
2018-10-21T01:00:13.780Z,37.27
2018-10-21T01:02:42.151Z,35.37
2018-10-21T01:05:11.173Z,31.87
2018-10-21T01:07:39.639Z,31.30
2018-10-21T01:10:09.720Z,35.38
2018-10-21T01:12:38.525Z,31.27
2018-10-21T01:15:08.361Z,33.38
2018-10-21T01:17:37.073Z,32.07
2018-10-21T01:20:07.121Z,37.20
2018-10-21T01:22:35.426Z,31.35
2018-10-21T01:25:03.987Z,32.30
2018-10-21T01:27:32.414Z,30.57
2018-10-21T01:30:00.780Z,27.27
2018-10-21T01:32:29.095Z,33.63
2018-10-21T01:35:04.169Z,28.97
2018-10-21T01:37:32.482Z,28.57
2018-10-21T01:40:35.830Z,29.45
2018-10-21T01:43:04.814Z,29.37
2018-10-21T01:45:33.185Z,27.35
2018-10-21T01:48:02.956Z,31.30
2018-10-21T01:50:31.401Z,24.27
2018-10-21T01:53:00.809Z,24.43
2018-10-21T01:55:29.116Z,25.10
2018-10-21T01:57:57.996Z,29.40
2018-10-21T02:00:27.040Z,25.47
2018-10-21T02:02:55.960Z,26.05
2018-10-21T02:05:24.623Z,22.73
2018-10-21T02:07:53.380Z,25.15
2018-10-21T02:10:21.719Z,25.70
2018-10-21T02:12:50.120Z,22.63
2018-10-21T02:15:18.489Z,24.03
2018-10-21T02:17:46.830Z,22.33
2018-10-21T02:20:16.004Z,19.55
2018-10-21T02:22:45.221Z,21.70
2018-10-21T02:25:13.718Z,21.80
2018-10-21T02:27:42.714Z,22.77
2018-10-21T02:30:15.308Z,21.95
2018-10-21T02:32:44.407Z,25.17
2018-10-21T02:35:13.397Z,25.80
2018-10-21T02:37:42.085Z,26.00
2018-10-21T02:41:53.909Z,27.52
2018-10-21T02:44:22.904Z,24.40
2018-10-21T02:46:53.292Z,23.22
2018-10-21T02:49:22.040Z,28.38
2018-10-21T02:51:55.691Z,27.87
2018-10-21T02:54:33.756Z,25.77
2018-10-21T02:57:02.440Z,28.73
2018-10-21T02:59:30.964Z,26.77
2018-10-21T03:01:59.269Z,25.90
2018-10-21T03:04:27.604Z,27.00
2018-10-21T03:06:55.919Z,26.83
2018-10-21T03:09:24.312Z,31.40
2018-10-21T03:11:52.610Z,30.12
2018-10-21T03:14:21.034Z,25.07
2018-10-21T03:16:49.366Z,25.92
2018-10-21T03:19:17.764Z,25.35
2018-10-21T03:21:46.450Z,28.65
2018-10-21T03:24:14.736Z,31.53
2018-10-21T03:26:43.906Z,26.87
2018-10-21T03:29:12.252Z,26.83
2018-10-21T03:31:40.600Z,27.97
2018-10-21T03:34:09.218Z,32.63
2018-10-21T03:36:37.360Z,26.30
2018-10-21T03:39:08.028Z,26.20
2018-10-21T03:41:36.470Z,27.30
2018-10-21T03:44:04.878Z,30.10
2018-10-21T03:46:33.389Z,27.13
2018-10-21T03:49:01.792Z,28.27
2018-10-21T03:51:30.192Z,30.68
2018-10-21T03:53:59.098Z,27.37
2018-10-21T03:56:27.466Z,31.07
2018-10-21T03:58:55.821Z,30.70
2018-10-21T04:01:24.145Z,30.23
2018-10-21T04:03:52.550Z,30.97
2018-10-21T04:06:21.174Z,33.90
2018-10-21T04:08:49.532Z,29.97
2018-10-21T04:11:17.873Z,37.48
2018-10-21T04:13:46.240Z,33.15
2018-10-21T04:16:14.622Z,34.03
2018-10-21T04:18:42.917Z,33.88
2018-10-21T04:21:11.239Z,33.88
2018-10-21T04:23:39.532Z,40.97
2018-10-21T04:26:07.905Z,37.65
2018-10-21T04:28:36.244Z,38.98
2018-10-21T04:31:05.104Z,36.98
2018-10-21T04:33:39.829Z,33.33
2018-10-21T04:36:09.353Z,33.88
2018-10-21T04:39:51.255Z,35.25
2018-10-21T04:42:19.653Z,38.15
2018-10-21T04:44:48.031Z,36.70
2018-10-21T04:47:16.375Z,38.90
2018-10-21T04:49:44.666Z,42.67
2018-10-21T04:52:13.050Z,36.97
2018-10-21T04:54:41.476Z,37.20
2018-10-21T04:57:09.945Z,40.00
2018-10-21T04:59:39.534Z,39.57
2018-10-21T05:02:08.185Z,41.73
2018-10-21T05:04:36.488Z,40.07
2018-10-21T05:07:04.930Z,39.70
2018-10-21T05:09:33.308Z,39.20
2018-10-21T05:12:01.786Z,36.43
2018-10-21T05:14:30.254Z,42.75
2018-10-21T05:16:58.593Z,39.92
2018-10-21T05:19:27.015Z,38.20
2018-10-21T05:21:55.380Z,40.13
2018-10-21T05:24:23.741Z,39.37
2018-10-21T05:29:29.989Z,39.83
2018-10-21T05:31:58.297Z,39.47
2018-10-21T05:34:26.617Z,42.53
2018-10-21T05:36:54.994Z,38.47
2018-10-21T05:39:23.564Z,40.83
2018-10-21T05:41:52.054Z,43.37
2018-10-21T05:44:20.494Z,39.30
2018-10-21T05:46:50.282Z,42.20
2018-10-21T05:49:18.524Z,44.80
2018-10-21T05:51:49.364Z,42.60
2018-10-21T05:54:18.565Z,41.00
2018-10-21T05:56:48.213Z,41.77
2018-10-21T05:59:17.255Z,44.60
2018-10-21T06:01:46.320Z,41.23
2018-10-21T06:04:15.723Z,40.20
2018-10-21T06:06:44.052Z,41.37
2018-10-21T06:09:13.616Z,37.53
2018-10-21T06:11:41.933Z,39.57
2018-10-21T06:14:10.308Z,35.90
2018-10-21T06:16:43.892Z,39.13
2018-10-21T06:19:13.280Z,36.73
2018-10-21T06:21:42.765Z,35.73
2018-10-21T06:24:11.248Z,34.37
2018-10-21T06:26:39.676Z,33.20
2018-10-21T06:29:08.145Z,33.07
2018-10-21T06:31:36.549Z,35.90
2018-10-21T06:34:05.878Z,33.97
2018-10-21T06:36:34.660Z,37.30
2018-10-21T06:39:03.321Z,34.97
2018-10-21T06:41:31.772Z,30.72
2018-10-21T06:44:00.445Z,35.03
2018-10-21T06:46:29.760Z,35.37
2018-10-21T06:48:58.144Z,31.47
2018-10-21T06:51:26.505Z,36.90
2018-10-21T06:53:55.113Z,30.82
2018-10-21T06:56:23.501Z,32.60
2018-10-21T06:58:51.885Z,35.93
2018-10-21T07:01:20.390Z,35.63
2018-10-21T07:03:48.703Z,31.03
2018-10-21T07:06:20.051Z,30.00
2018-10-21T07:08:49.665Z,29.40
2018-10-21T07:11:18.117Z,30.92
2018-10-21T07:13:46.420Z,30.60
2018-10-21T07:16:14.987Z,31.23
2018-10-21T07:18:44.304Z,25.90
2018-10-21T07:21:12.880Z,29.57
2018-10-21T07:23:41.249Z,29.20
2018-10-21T07:26:09.756Z,27.65
2018-10-21T07:28:38.071Z,25.70
2018-10-21T07:31:06.450Z,26.57
2018-10-21T07:33:34.851Z,29.27
2018-10-21T07:36:03.265Z,26.30
2018-10-21T07:38:32.166Z,27.27
2018-10-21T07:41:00.501Z,28.60
2018-10-21T07:43:28.802Z,31.95
2018-10-21T07:45:57.570Z,26.37
2018-10-21T07:48:26.096Z,27.37
2018-10-21T07:50:55.512Z,29.82
2018-10-21T07:53:24.069Z,28.38
2018-10-21T07:55:52.402Z,28.92
2018-10-21T07:58:21.146Z,27.55
2018-10-21T08:00:49.636Z,28.73
2018-10-21T08:03:18.801Z,27.00
2018-10-21T08:05:58.796Z,27.00
2018-10-21T08:08:28.749Z,32.13
2018-10-21T08:10:59.967Z,27.27
2018-10-21T08:13:30.234Z,29.82
2018-10-21T08:15:59.935Z,31.52
2018-10-21T08:18:29.274Z,27.70
2018-10-21T08:20:58.191Z,31.30
2018-10-21T08:23:26.665Z,28.60
2018-10-21T08:25:56.107Z,30.77
2018-10-21T08:28:25.191Z,33.02
2018-10-21T08:30:53.981Z,30.82
2018-10-21T08:33:24.142Z,31.35
2018-10-21T08:35:52.471Z,26.97
2018-10-21T08:38:20.740Z,29.18
2018-10-21T08:40:49.278Z,30.80
2018-10-21T08:43:17.691Z,25.77
2018-10-21T08:45:46.021Z,29.37
2018-10-21T08:48:14.436Z,27.07
2018-10-21T08:50:42.978Z,25.52
2018-10-21T08:53:11.426Z,29.35
2018-10-21T08:55:39.823Z,25.90
2018-10-21T08:58:08.457Z,29.55
2018-10-21T09:00:36.822Z,25.52
2018-10-21T09:03:05.948Z,24.27
2018-10-21T09:05:34.522Z,28.60
2018-10-21T09:08:03.095Z,24.25
2018-10-21T09:10:32.379Z,23.30
2018-10-21T09:13:00.763Z,26.87
2018-10-21T09:15:29.228Z,26.33
2018-10-21T09:17:57.512Z,28.67
2018-10-21T09:20:25.817Z,28.35
2018-10-21T09:22:54.143Z,28.55
2018-10-21T09:25:22.854Z,30.20
2018-10-21T09:27:51.162Z,26.40
2018-10-21T09:30:19.460Z,24.98
2018-10-21T09:32:47.781Z,25.08
2018-10-21T09:35:17.599Z,24.45
2018-10-21T09:37:46.433Z,24.35
2018-10-21T09:40:19.373Z,24.63
2018-10-21T09:42:48.413Z,25.37
2018-10-21T09:45:18.235Z,27.00
2018-10-21T09:47:46.679Z,29.52
2018-10-21T09:50:15.317Z,27.50
2018-10-21T09:52:43.738Z,28.02
2018-10-21T09:55:17.611Z,23.70
2018-10-21T09:57:46.614Z,25.05
2018-10-21T10:01:18.852Z,28.15
2018-10-21T10:03:47.358Z,27.95
2018-10-21T10:06:22.701Z,26.02
2018-10-21T10:08:51.127Z,34.45
2018-10-21T10:11:19.534Z,32.03
2018-10-21T10:13:47.923Z,26.62
2018-10-21T10:16:16.509Z,28.25
2018-10-21T10:18:45.015Z,31.23
2018-10-21T10:21:13.520Z,27.65
2018-10-21T10:23:42.102Z,29.70
2018-10-21T10:26:10.554Z,30.02
2018-10-21T10:28:39.052Z,28.83
2018-10-21T10:31:07.597Z,34.45
2018-10-21T10:33:36.052Z,29.72
2018-10-21T10:36:04.997Z,31.50
2018-10-21T10:38:33.681Z,28.57
2018-10-21T10:41:02.082Z,31.25
2018-10-21T10:43:30.675Z,33.42
2018-10-21T10:45:59.191Z,32.83
2018-10-21T10:48:27.650Z,32.42
2018-10-21T10:50:56.192Z,32.25
2018-10-21T10:53:24.537Z,41.13
2018-10-21T10:55:53.538Z,34.20
2018-10-21T10:58:21.993Z,33.88
2018-10-21T11:00:50.492Z,34.67
2018-10-21T11:03:18.875Z,36.80
2018-10-21T11:05:47.296Z,36.55
2018-10-21T11:08:15.725Z,35.40
2018-10-21T11:10:44.505Z,32.13
2018-10-21T11:13:12.943Z,37.38
2018-10-21T11:15:41.436Z,37.15
2018-10-21T11:18:09.890Z,35.68
2018-10-21T11:20:38.285Z,34.65
2018-10-21T11:23:07.148Z,36.85
2018-10-21T11:25:35.948Z,38.45
2018-10-21T11:28:05.129Z,38.23
2018-10-21T11:30:33.634Z,35.35
2018-10-21T11:33:02.137Z,33.10
2018-10-21T11:35:30.700Z,35.92
2018-10-21T11:37:59.348Z,32.67
2018-10-21T11:40:28.002Z,35.25
2018-10-21T11:42:56.319Z,38.23
2018-10-21T11:45:24.786Z,40.48
2018-10-21T11:47:53.470Z,34.83
2018-10-21T11:50:22.026Z,37.98
2018-10-21T11:52:50.865Z,39.78
2018-10-21T11:55:19.568Z,39.08
2018-10-21T11:57:47.922Z,39.23
2018-10-21T12:00:16.383Z,37.00
2018-10-21T12:02:44.890Z,36.80
2018-10-21T12:05:13.375Z,37.58
2018-10-21T12:07:42.000Z,36.55
2018-10-21T12:10:10.464Z,35.43
2018-10-21T12:12:39.180Z,37.80
2018-10-21T12:15:07.706Z,39.18
2018-10-21T12:17:36.670Z,35.63
2018-10-21T12:20:05.117Z,38.90
2018-10-21T12:22:34.005Z,39.15
2018-10-21T12:25:03.290Z,40.58
2018-10-21T12:27:31.735Z,38.30
2018-10-21T12:30:00.384Z,39.63
2018-10-21T12:32:28.760Z,39.48
2018-10-21T12:34:57.100Z,39.23
2018-10-21T12:37:25.696Z,37.20
2018-10-21T12:39:54.278Z,38.10
2018-10-21T12:42:22.871Z,39.98
2018-10-21T12:44:51.599Z,36.75
2018-10-21T12:47:20.082Z,37.75
2018-10-21T12:49:48.476Z,41.10
2018-10-21T12:52:17.362Z,39.67
2018-10-21T12:54:45.721Z,38.35
2018-10-21T12:57:14.093Z,40.52
2018-10-21T12:59:42.554Z,35.85
2018-10-21T13:02:10.914Z,38.78
2018-10-21T13:04:39.383Z,39.73
2018-10-21T13:07:07.761Z,40.88
2018-10-21T13:09:36.178Z,41.08
2018-10-21T13:12:05.053Z,39.27
2018-10-21T13:14:33.730Z,36.28
2018-10-21T13:17:02.180Z,40.75
2018-10-21T13:19:30.755Z,41.68
2018-10-21T13:21:59.188Z,39.23
2018-10-21T13:24:27.772Z,38.40
2018-10-21T13:26:56.220Z,34.18
2018-10-21T13:29:24.615Z,38.65
2018-10-21T13:31:53.138Z,39.40
2018-10-21T13:34:21.590Z,34.38
2018-10-21T13:36:50.074Z,35.65
2018-10-21T13:39:18.582Z,31.73
2018-10-21T13:41:47.300Z,34.15
2018-10-21T13:44:15.748Z,35.33
2018-10-21T13:46:44.178Z,33.60
2018-10-21T13:49:12.544Z,35.78
2018-10-21T13:51:41.230Z,37.00
2018-10-21T13:54:09.782Z,34.75
2018-10-21T13:56:38.418Z,32.83
2018-10-21T13:59:07.258Z,34.00
2018-10-21T14:01:42.045Z,33.30
2018-10-21T14:04:10.833Z,29.95
2018-10-21T14:06:40.061Z,36.73
2018-10-21T14:09:11.430Z,32.30
2018-10-21T14:11:40.132Z,30.72
2018-10-21T14:14:09.693Z,33.75
2018-10-21T14:16:38.299Z,35.40
2018-10-21T14:19:07.145Z,38.53
2018-10-21T14:21:35.588Z,32.48
2018-10-21T14:24:04.162Z,31.97
2018-10-21T14:26:32.616Z,30.15
2018-10-21T14:29:01.060Z,43.35
2018-10-21T14:31:30.340Z,36.30
2018-10-21T14:33:59.211Z,35.10
2018-10-21T14:36:27.699Z,36.40
2018-10-21T14:38:56.903Z,31.95
2018-10-21T14:41:25.332Z,30.92
2018-10-21T14:43:53.697Z,32.70
2018-10-21T14:46:22.342Z,33.42
2018-10-21T14:48:50.754Z,36.08
2018-10-21T14:51:19.375Z,36.68
2018-10-21T14:53:47.732Z,38.23
2018-10-21T14:56:16.238Z,31.93
2018-10-21T14:58:44.726Z,34.92
2018-10-21T15:01:13.136Z,35.65
2018-10-21T15:03:41.464Z,34.23
2018-10-21T15:06:09.878Z,34.43
2018-10-21T15:08:38.361Z,36.25
2018-10-21T15:11:07.389Z,37.83
2018-10-21T15:13:36.221Z,38.35
2018-10-21T15:16:04.784Z,34.78
2018-10-21T15:18:33.527Z,31.68
2018-10-21T15:21:01.961Z,38.50
2018-10-21T15:23:30.380Z,32.80
2018-10-21T15:25:58.780Z,34.83
2018-10-21T15:28:27.154Z,30.62
2018-10-21T15:30:55.769Z,34.70
2018-10-21T15:33:24.085Z,32.10
2018-10-21T15:35:52.425Z,30.43
2018-10-21T15:38:20.912Z,30.65
2018-10-21T15:40:49.364Z,29.20
2018-10-21T15:43:17.833Z,28.38
2018-10-21T15:45:46.211Z,30.00
2018-10-21T15:48:14.999Z,30.82
2018-10-21T15:50:43.401Z,29.75
2018-10-21T15:53:11.752Z,31.15
2018-10-21T15:55:42.436Z,30.82
2018-10-21T15:58:11.016Z,29.37
2018-10-21T16:00:39.389Z,30.70
2018-10-21T16:03:07.733Z,28.32
2018-10-21T16:05:36.173Z,30.30
2018-10-21T16:08:04.776Z,33.15
2018-10-21T16:10:33.330Z,31.65
2018-10-21T16:13:02.335Z,34.73
2018-10-21T16:15:30.804Z,29.85
2018-10-21T16:17:59.177Z,30.30
2018-10-21T16:20:27.529Z,31.52
2018-10-21T16:22:55.897Z,31.20
2018-10-21T16:25:24.288Z,32.20
2018-10-21T16:27:52.678Z,38.10
2018-10-21T16:30:21.117Z,28.42
2018-10-21T16:32:49.655Z,34.13
2018-10-21T16:35:17.900Z,33.28
2018-10-21T16:37:46.599Z,30.15
2018-10-21T16:40:16.286Z,30.62
2018-10-21T16:42:44.744Z,32.83
2018-10-21T16:45:19.960Z,35.63
2018-10-21T16:47:48.403Z,36.68
2018-10-21T16:50:17.801Z,34.13
2018-10-21T16:52:47.083Z,33.28
2018-10-21T16:55:16.364Z,35.23
2018-10-21T16:57:44.757Z,36.10
2018-10-21T17:00:14.715Z,33.30
2018-10-21T17:02:43.415Z,37.00
2018-10-21T17:05:12.217Z,35.55
2018-10-21T17:07:40.520Z,32.95
2018-10-21T17:10:09.933Z,37.13
2018-10-21T17:12:38.122Z,35.83
2018-10-21T17:15:07.486Z,34.88
2018-10-21T17:17:36.176Z,35.73
2018-10-21T17:20:05.682Z,37.55
2018-10-21T17:22:34.186Z,36.80
2018-10-21T17:25:02.617Z,32.00
2018-10-21T17:27:30.923Z,33.63
2018-10-21T17:29:59.495Z,32.05
2018-10-21T17:32:27.829Z,34.18
2018-10-21T17:34:56.194Z,31.52
2018-10-21T17:37:24.677Z,33.48
2018-10-21T17:39:53.120Z,33.58
2018-10-21T17:42:21.504Z,33.63
2018-10-21T17:44:49.868Z,35.08
2018-10-21T17:47:18.169Z,34.80
2018-10-21T17:49:46.586Z,29.75
2018-10-21T17:52:15.014Z,32.53
2018-10-21T17:54:43.278Z,30.62
2018-10-21T17:57:11.565Z,30.65
2018-10-21T17:59:39.905Z,35.08
2018-10-21T18:02:08.229Z,32.00
2018-10-21T18:04:36.732Z,34.35
2018-10-21T18:07:05.613Z,32.65
2018-10-21T18:09:34.001Z,30.95
2018-10-21T18:12:02.408Z,32.28
2018-10-21T18:14:30.852Z,31.40
2018-10-21T18:17:00.192Z,34.05
2018-10-21T18:19:28.510Z,29.18
2018-10-21T18:21:56.877Z,37.13
2018-10-21T18:24:25.428Z,36.50
2018-10-21T18:26:53.805Z,34.00
2018-10-21T18:29:22.092Z,34.45
2018-10-21T18:31:50.387Z,32.65
2018-10-21T18:34:18.683Z,32.67
2018-10-21T18:36:47.001Z,38.40
2018-10-21T18:39:15.332Z,35.68
2018-10-21T18:41:43.609Z,34.20
2018-10-21T18:44:11.901Z,39.13
2018-10-21T18:46:40.198Z,35.48
2018-10-21T18:49:08.613Z,38.05
2018-10-21T18:51:36.963Z,29.37
2018-10-21T18:54:05.957Z,43.58
2018-10-21T18:56:34.297Z,35.60
2018-10-21T18:59:02.803Z,34.95
2018-10-21T19:01:32.024Z,41.90
2018-10-21T19:04:00.512Z,35.65
2018-10-21T19:06:28.924Z,36.55
2018-10-21T19:08:57.627Z,38.28
2018-10-21T19:11:26.083Z,39.98
2018-10-21T19:13:54.425Z,36.17
2018-10-21T19:16:22.781Z,37.90
2018-10-21T19:18:51.283Z,38.42
2018-10-21T19:21:19.676Z,37.73
2018-10-21T19:23:54.849Z,36.15
2018-10-21T19:26:23.250Z,34.40
2018-10-21T19:28:51.683Z,35.83
2018-10-21T19:31:19.978Z,35.58
2018-10-21T19:33:48.338Z,37.60
2018-10-21T19:36:16.641Z,39.98
2018-10-21T19:38:45.034Z,45.38
2018-10-21T19:41:13.541Z,43.55
2018-10-21T19:43:41.937Z,41.35
2018-10-21T19:46:10.289Z,42.25
2018-10-21T19:48:38.526Z,43.83
2018-10-21T19:51:07.157Z,47.80
2018-10-21T19:53:35.582Z,44.67
2018-10-21T19:56:04.139Z,43.40
2018-10-21T19:58:32.532Z,43.73
2018-10-21T20:01:00.984Z,41.03
2018-10-21T20:03:29.329Z,45.23
2018-10-21T20:05:57.758Z,41.15
2018-10-21T20:08:26.793Z,39.67
2018-10-21T20:10:55.300Z,40.25
2018-10-21T20:13:23.976Z,43.23
2018-10-21T20:15:52.361Z,39.45
2018-10-21T20:18:20.914Z,36.48
2018-10-21T20:20:49.677Z,40.33
2018-10-21T20:23:18.045Z,38.42
2018-10-21T20:25:46.971Z,38.08
2018-10-21T20:28:15.468Z,39.40
2018-10-21T20:30:44.287Z,39.58
2018-10-21T20:33:13.404Z,40.33
2018-10-21T20:35:41.781Z,38.77
2018-10-21T20:38:10.979Z,40.63
2018-10-21T20:40:39.321Z,40.33
2018-10-21T20:43:07.708Z,39.53
2018-10-21T20:45:36.527Z,42.87
2018-10-21T20:48:05.048Z,42.77
2018-10-21T20:50:33.491Z,36.93
2018-10-21T20:53:01.884Z,37.63
2018-10-21T20:55:30.483Z,41.43
2018-10-21T20:57:58.832Z,43.23
2018-10-21T21:00:27.205Z,41.08
2018-10-21T21:02:55.489Z,41.67
2018-10-21T21:05:23.791Z,48.50
2018-10-21T21:07:52.087Z,39.83
2018-10-21T21:10:20.446Z,42.93
2018-10-21T21:12:48.719Z,42.00
2018-10-21T21:15:17.063Z,45.10
2018-10-21T21:17:45.368Z,50.03
2018-10-21T21:20:13.776Z,42.53
2018-10-21T21:22:42.106Z,40.45
2018-10-21T21:25:10.488Z,47.83
2018-10-21T21:27:38.902Z,45.33
2018-10-21T21:30:07.448Z,43.43
2018-10-21T21:32:35.876Z,46.02
2018-10-21T21:35:04.748Z,44.60
2018-10-21T21:37:33.912Z,46.80
2018-10-21T21:40:02.433Z,44.00
2018-10-21T21:42:30.742Z,46.88
2018-10-21T21:44:59.054Z,46.20
2018-10-21T21:47:27.357Z,46.02
2018-10-21T21:49:55.828Z,48.15
2018-10-21T21:52:24.192Z,46.83
2018-10-21T21:54:52.460Z,45.60
2018-10-21T21:57:20.863Z,46.20
2018-10-21T21:59:49.233Z,46.70
2018-10-21T22:02:17.612Z,47.13
2018-10-21T22:04:46.154Z,46.42
2018-10-21T22:07:14.596Z,50.58
2018-10-21T22:09:43.054Z,42.67
2018-10-21T22:12:11.497Z,42.10
2018-10-21T22:14:39.820Z,42.55
2018-10-21T22:17:08.184Z,42.53
2018-10-21T22:19:36.632Z,43.00
2018-10-21T22:22:05.168Z,42.98
2018-10-21T22:24:33.619Z,39.90
2018-10-21T22:27:02.012Z,36.45
2018-10-21T22:29:31.177Z,37.53
2018-10-21T22:31:59.529Z,31.95
2018-10-21T22:34:28.097Z,34.15
2018-10-21T22:36:56.445Z,29.05
2018-10-21T22:39:24.820Z,29.12
2018-10-21T22:41:53.228Z,27.62
2018-10-21T22:44:21.597Z,27.50
2018-10-21T22:46:50.163Z,26.97
2018-10-21T22:49:18.463Z,24.18
2018-10-21T22:51:46.935Z,26.33
2018-10-21T22:54:15.365Z,22.90
2018-10-21T22:56:43.720Z,23.77
2018-10-21T22:59:12.136Z,24.70
2018-10-21T23:01:40.493Z,22.13
2018-10-21T23:04:08.897Z,23.75
2018-10-21T23:06:37.152Z,20.05
2018-10-21T23:09:09.112Z,21.40
2018-10-21T23:11:37.513Z,22.30
2018-10-21T23:14:06.320Z,20.90
2018-10-21T23:16:34.719Z,20.55
2018-10-21T23:19:14.399Z,22.05
2018-10-21T23:21:42.969Z,26.85
2018-10-21T23:24:11.370Z,21.80
2018-10-21T23:26:39.699Z,23.57
2018-10-21T23:29:08.157Z,23.27
2018-10-21T23:31:36.461Z,23.18
2018-10-21T23:34:05.415Z,23.38
2018-10-21T23:36:33.924Z,22.77
2018-10-21T23:39:02.371Z,26.12
2018-10-21T23:41:30.724Z,23.90
2018-10-21T23:43:59.101Z,23.52
2018-10-21T23:46:27.422Z,28.70
2018-10-21T23:48:55.975Z,21.87
2018-10-21T23:51:24.244Z,22.52
2018-10-21T23:53:52.630Z,24.02
2018-10-21T23:56:21.223Z,20.97
2018-10-21T23:58:49.781Z,18.57
